クライストチャーチ の空港の天気 - METARとTAF

クライストチャーチ国際空港 ( NZCH / CHC ) - ニュージーランド クライストチャーチ
飛行場実況気象(Metar)
観測時間09/27 01:30 NZDT (09/26 12:30 UTC)
風向・風速南西 6m/s
視程10km以上
天気現象
全天の8割程度の雲 雲底高度 1010m
全天の8割程度の雲 雲底高度 2440m
気温10℃
湿度87%
気圧1005hPa
METARNZCH 261230Z AUTO 22011KT 9999 BKN033/// BKN080/// 10/08 Q1005 NOSIG
過去の天気等 Google飛行場航空写真 Wunderground天気予報

過去48時間のMETAR

飛行場予報(TAF)
発表時間: 9/27 00:04 NZDT (9/26 11:04 UTC)
予報対象時間: 27日1時 NZDT ~ 28日1時 NZDT
風向・風速西南西 4m/s
視程10km以上
天気現象弱いしゅう雨
全天の4割程度の雲 雲底高度 460m
全天の8割程度の雲 雲底高度 610m
27日1時 NZDT ~ 27日3時 NZDT に一時的に
視程7,000m
天気現象しゅう雨
27日13時 NZDT から
風向・風速東北東 5m/s
視程10km以上
少しの雲 雲底高度 910m
27日19時 NZDT ~ 27日21時 NZDT に徐々に
風向・風速不定 1m/s
TAF NZCH 261104Z 2612/2712 24008KT 9999 -SHRA SCT015 BKN020
TEMPO 2612/2614 7000 SHRA
FM270000 06010KT 9999 FEW030
BECMG 2706/2708 VRB02KT